createdAt,value
2022-10-12T00:01:41.524Z,5.00
2022-10-12T00:04:44.339Z,5.55
2022-10-12T00:07:47.108Z,4.53
2022-10-12T00:10:50.245Z,5.07
2022-10-12T00:13:53.875Z,4.88
2022-10-12T00:16:58.182Z,4.97
2022-10-12T00:20:01.001Z,5.00
2022-10-12T00:23:04.030Z,4.95
2022-10-12T00:26:08.716Z,4.80
2022-10-12T00:29:11.501Z,5.03
2022-10-12T00:32:16.374Z,4.88
2022-10-12T00:35:19.196Z,5.07
2022-10-12T00:38:22.281Z,5.30
2022-10-12T00:41:27.095Z,4.50
2022-10-12T00:44:39.328Z,4.72
2022-10-12T00:47:49.717Z,4.85
2022-10-12T00:50:52.839Z,4.72
2022-10-12T00:54:01.091Z,4.57
2022-10-12T00:57:06.449Z,4.68
2022-10-12T01:00:11.891Z,4.50
2022-10-12T01:03:19.310Z,4.43
2022-10-12T01:06:22.363Z,4.75
2022-10-12T01:09:25.217Z,4.60
2022-10-12T01:12:28.744Z,4.30
2022-10-12T01:15:36.423Z,4.43
2022-10-12T01:18:48.950Z,4.55
2022-10-12T01:21:59.129Z,4.57
2022-10-12T01:25:15.160Z,4.00
2022-10-12T01:28:25.381Z,4.53
2022-10-12T01:31:36.676Z,4.18
2022-10-12T01:34:47.079Z,4.55
2022-10-12T01:37:59.277Z,4.43
2022-10-12T01:41:08.016Z,4.25
2022-10-12T01:44:10.817Z,4.22
2022-10-12T01:47:15.065Z,3.78
2022-10-12T01:50:18.783Z,4.45
2022-10-12T01:53:34.417Z,4.18
2022-10-12T01:56:48.148Z,4.05
2022-10-12T01:59:59.407Z,3.95
2022-10-12T02:03:14.217Z,4.03
2022-10-12T02:06:20.378Z,4.07
2022-10-12T02:09:27.694Z,4.13
2022-10-12T02:12:33.244Z,3.95
2022-10-12T02:15:38.575Z,4.22
2022-10-12T02:18:46.303Z,4.20
2022-10-12T02:21:51.316Z,4.22
2022-10-12T02:24:57.997Z,3.97
2022-10-12T02:28:06.898Z,4.20
2022-10-12T02:31:16.105Z,3.90
2022-10-12T02:34:26.156Z,3.92
2022-10-12T02:37:36.100Z,4.18
2022-10-12T02:40:43.369Z,3.92
2022-10-12T02:43:51.818Z,4.10
2022-10-12T02:46:56.084Z,4.20
2022-10-12T02:50:01.799Z,4.00
2022-10-12T02:53:05.565Z,3.70
2022-10-12T02:56:11.917Z,3.78
2022-10-12T02:59:15.424Z,4.00
2022-10-12T03:02:18.212Z,3.38
2022-10-12T03:05:23.421Z,3.67
2022-10-12T03:08:26.248Z,3.90
2022-10-12T03:11:29.202Z,3.33
2022-10-12T03:14:33.942Z,3.20
2022-10-12T03:17:36.997Z,3.35
2022-10-12T03:20:41.375Z,3.80
2022-10-12T03:23:44.161Z,3.83
2022-10-12T03:26:46.981Z,3.33
2022-10-12T03:29:49.759Z,3.78
2022-10-12T03:32:52.606Z,3.72
2022-10-12T03:35:56.752Z,3.60
2022-10-12T03:38:59.684Z,3.60
2022-10-12T03:42:02.884Z,3.47
2022-10-12T03:45:06.330Z,2.97
2022-10-12T03:48:09.106Z,3.83
2022-10-12T03:51:13.346Z,3.35
2022-10-12T03:54:16.342Z,3.38
2022-10-12T03:57:19.114Z,3.40
2022-10-12T04:00:22.192Z,3.20
2022-10-12T04:03:25.032Z,3.50
2022-10-12T04:06:29.280Z,3.85
2022-10-12T04:09:32.084Z,3.33
2022-10-12T04:12:34.902Z,3.60
2022-10-12T04:15:37.982Z,3.28
2022-10-12T04:18:40.827Z,3.40
2022-10-12T04:21:44.969Z,3.13
2022-10-12T04:24:47.821Z,3.15
2022-10-12T04:27:51.139Z,2.70
2022-10-12T04:30:53.922Z,3.63
2022-10-12T04:33:57.155Z,3.10
2022-10-12T04:37:01.325Z,3.80
2022-10-12T04:40:04.810Z,3.22
2022-10-12T04:43:07.581Z,3.40
2022-10-12T04:46:10.367Z,3.45
2022-10-12T04:49:13.360Z,3.30
2022-10-12T04:52:17.528Z,3.03
2022-10-12T04:55:20.293Z,3.08
2022-10-12T04:58:23.096Z,2.90
2022-10-12T05:01:26.008Z,3.33
2022-10-12T05:04:28.849Z,3.30
2022-10-12T05:07:33.040Z,3.05
2022-10-12T05:10:35.913Z,3.13
2022-10-12T05:13:38.698Z,2.90
2022-10-12T05:16:41.564Z,3.20
2022-10-12T05:19:44.356Z,3.72
2022-10-12T05:22:48.648Z,3.30
2022-10-12T05:25:51.560Z,3.08
2022-10-12T05:28:54.842Z,3.35
2022-10-12T05:31:57.800Z,2.92
2022-10-12T05:35:00.618Z,2.72
2022-10-12T05:38:05.058Z,2.97
2022-10-12T05:41:08.075Z,3.10
2022-10-12T05:44:10.918Z,2.85
2022-10-12T05:47:13.711Z,3.00
2022-10-12T05:50:16.619Z,3.03
2022-10-12T05:53:20.818Z,3.40
2022-10-12T05:56:23.561Z,2.83
2022-10-12T05:59:26.454Z,2.92
2022-10-12T06:02:29.257Z,3.05
2022-10-12T06:05:32.082Z,2.85
2022-10-12T06:08:36.675Z,2.85
2022-10-12T06:11:40.021Z,3.10
2022-10-12T06:14:42.773Z,2.92
2022-10-12T06:17:45.569Z,3.15
2022-10-12T06:20:49.405Z,2.88
2022-10-12T06:23:53.552Z,3.15
2022-10-12T06:26:56.345Z,2.97
2022-10-12T06:29:59.191Z,3.05
2022-10-12T06:33:02.018Z,2.83
2022-10-12T06:36:05.047Z,3.10
2022-10-12T06:39:09.997Z,3.03
2022-10-12T06:42:12.769Z,2.78
2022-10-12T06:45:25.257Z,2.75
2022-10-12T06:48:28.038Z,3.05
2022-10-12T06:51:30.945Z,3.08
2022-10-12T06:54:35.106Z,3.20
2022-10-12T06:57:38.205Z,2.95
2022-10-12T07:00:40.970Z,2.72
2022-10-12T07:03:43.760Z,3.20
2022-10-12T07:06:46.548Z,3.10
2022-10-12T07:09:50.864Z,3.00
2022-10-12T07:12:53.684Z,3.10
2022-10-12T07:15:56.474Z,3.03
2022-10-12T07:18:59.245Z,3.05
2022-10-12T07:22:02.419Z,2.80
2022-10-12T07:25:07.794Z,2.70
2022-10-12T07:28:10.848Z,2.88
2022-10-12T07:31:13.796Z,2.58
2022-10-12T07:34:16.656Z,3.10
2022-10-12T07:37:19.582Z,2.80
2022-10-12T07:40:23.777Z,2.75
2022-10-12T07:43:26.615Z,3.05
2022-10-12T07:46:29.378Z,2.67
2022-10-12T07:49:32.199Z,2.80
2022-10-12T07:52:35.041Z,3.10
2022-10-12T07:55:39.211Z,2.70
2022-10-12T07:58:42.134Z,2.80
2022-10-12T08:01:45.003Z,3.15
2022-10-12T08:04:47.829Z,2.70
2022-10-12T08:07:51.203Z,2.70
2022-10-12T08:10:57.501Z,2.90
2022-10-12T08:14:00.301Z,2.63
2022-10-12T08:17:03.117Z,2.97
2022-10-12T08:20:07.514Z,2.80
2022-10-12T08:23:10.313Z,2.70
2022-10-12T08:26:15.667Z,2.67
2022-10-12T08:29:18.641Z,3.25
2022-10-12T08:32:21.486Z,2.63
2022-10-12T08:35:24.287Z,2.83
2022-10-12T08:38:27.077Z,2.80
2022-10-12T08:41:44.317Z,2.88
2022-10-12T08:44:58.039Z,2.75
2022-10-12T08:48:08.521Z,2.97
2022-10-12T08:51:16.820Z,3.00
2022-10-12T08:54:23.111Z,2.72
2022-10-12T08:57:27.442Z,2.80
2022-10-12T09:00:34.812Z,3.00
2022-10-12T09:03:45.565Z,2.63
2022-10-12T09:06:51.909Z,2.88
2022-10-12T09:10:09.807Z,3.00
2022-10-12T09:13:29.517Z,2.72
2022-10-12T09:16:35.840Z,3.40
2022-10-12T09:19:42.101Z,2.90
2022-10-12T09:22:50.334Z,2.63
2022-10-12T09:25:55.947Z,2.72
2022-10-12T09:29:00.561Z,2.50
2022-10-12T09:32:29.383Z,2.60
2022-10-12T09:35:32.312Z,2.72
2022-10-12T09:38:35.568Z,2.33
2022-10-12T09:41:42.492Z,2.47
2022-10-12T09:44:49.477Z,2.50
2022-10-12T09:48:18.324Z,2.67
2022-10-12T09:51:21.233Z,2.30
2022-10-12T09:54:28.506Z,2.63
2022-10-12T09:57:33.804Z,2.63
2022-10-12T10:00:37.993Z,2.72
2022-10-12T10:03:40.893Z,2.72
2022-10-12T10:06:45.914Z,3.05
2022-10-12T10:09:49.343Z,2.95
2022-10-12T10:12:54.171Z,3.00
2022-10-12T10:16:06.835Z,2.75
2022-10-12T10:19:18.855Z,3.10
2022-10-12T10:22:22.936Z,2.70
2022-10-12T10:25:26.365Z,3.20
2022-10-12T10:28:31.755Z,3.33
2022-10-12T10:31:36.053Z,3.03
2022-10-12T10:34:39.146Z,3.10
2022-10-12T10:37:46.279Z,2.97
2022-10-12T10:40:52.535Z,2.85
2022-10-12T10:43:55.995Z,2.80
2022-10-12T10:47:03.321Z,3.03
2022-10-12T10:50:26.929Z,3.05
2022-10-12T10:53:32.913Z,3.20
2022-10-12T10:56:35.801Z,3.17
2022-10-12T10:59:45.837Z,3.33
2022-10-12T11:02:53.274Z,3.17
2022-10-12T11:06:04.646Z,3.40
2022-10-12T11:09:17.194Z,3.05
2022-10-12T11:12:30.256Z,3.63
2022-10-12T11:15:39.692Z,3.25
2022-10-12T11:18:47.313Z,3.63
2022-10-12T11:21:54.479Z,3.60
2022-10-12T11:25:07.059Z,3.50
2022-10-12T11:28:16.391Z,3.58
2022-10-12T11:31:25.638Z,3.60
2022-10-12T11:34:37.203Z,4.10
2022-10-12T11:37:43.823Z,3.92
2022-10-12T11:41:31.097Z,3.30
2022-10-12T11:44:18.971Z,4.00
2022-10-12T11:47:32.832Z,3.90
2022-10-12T11:50:39.777Z,3.38
2022-10-12T11:53:50.393Z,3.50
2022-10-12T11:56:58.012Z,3.53
2022-10-12T12:00:05.728Z,3.75
2022-10-12T12:03:23.173Z,3.90
2022-10-12T12:06:51.258Z,4.18
2022-10-12T12:09:54.614Z,3.72
2022-10-12T12:13:18.093Z,3.50
2022-10-12T12:16:27.825Z,3.60
2022-10-12T12:19:40.615Z,3.83
2022-10-12T12:22:52.189Z,3.70
2022-10-12T12:26:11.814Z,3.20
2022-10-12T12:29:29.784Z,3.60
2022-10-12T12:32:45.799Z,3.80
2022-10-12T12:35:55.501Z,3.30
2022-10-12T12:39:00.136Z,4.13
2022-10-12T12:42:05.141Z,4.13
2022-10-12T12:45:41.265Z,4.13
2022-10-12T12:49:07.338Z,4.45
2022-10-12T12:52:17.748Z,3.92
2022-10-12T12:55:52.722Z,4.10
2022-10-12T12:59:19.135Z,4.65
2022-10-12T13:02:48.063Z,5.00
2022-10-12T13:06:34.895Z,5.35
2022-10-12T13:09:59.485Z,4.53
2022-10-12T13:13:27.641Z,5.78
2022-10-12T13:20:19.437Z,4.75
2022-10-12T13:23:25.420Z,4.72
2022-10-12T13:26:32.142Z,5.25
2022-10-12T13:29:42.385Z,5.35
2022-10-12T13:32:50.961Z,5.15
2022-10-12T13:35:57.482Z,4.88
2022-10-12T13:39:07.920Z,4.63
2022-10-12T13:42:16.052Z,4.85
2022-10-12T13:45:21.270Z,4.80
2022-10-12T13:48:46.320Z,4.32
2022-10-12T13:51:50.457Z,4.22
2022-10-12T13:54:53.420Z,4.18
2022-10-12T13:57:56.291Z,4.65
2022-10-12T14:01:00.819Z,4.35
2022-10-12T14:04:05.638Z,5.07
2022-10-12T14:07:16.295Z,4.60
2022-10-12T14:10:22.785Z,4.32
2022-10-12T14:13:28.745Z,4.30
2022-10-12T14:16:33.010Z,4.32
2022-10-12T14:19:45.760Z,4.30
2022-10-12T14:22:49.897Z,4.50
2022-10-12T14:25:54.298Z,4.30
2022-10-12T14:28:58.218Z,4.70
2022-10-12T14:32:03.813Z,4.50
2022-10-12T14:35:20.903Z,4.78
2022-10-12T14:38:38.819Z,4.88
2022-10-12T14:41:50.105Z,4.88
2022-10-12T14:44:53.258Z,5.03
2022-10-12T14:47:59.534Z,4.43
2022-10-12T14:51:02.415Z,4.70
2022-10-12T14:54:06.167Z,4.97
2022-10-12T14:57:13.970Z,4.55
2022-10-12T15:00:18.885Z,4.38
2022-10-12T15:03:23.165Z,4.40
2022-10-12T15:06:25.995Z,4.28
2022-10-12T15:09:28.936Z,4.55
2022-10-12T15:12:32.001Z,4.15
2022-10-12T15:15:42.284Z,4.82
2022-10-12T15:18:46.681Z,4.53
2022-10-12T15:21:49.556Z,5.03
2022-10-12T15:24:53.660Z,5.10
2022-10-12T15:27:56.479Z,5.22
2022-10-12T15:31:16.977Z,5.78
2022-10-12T15:34:21.995Z,5.35
2022-10-12T15:37:30.173Z,5.57
2022-10-12T15:40:34.423Z,6.13
2022-10-12T15:43:39.699Z,5.75
2022-10-12T15:46:45.497Z,6.20
2022-10-12T15:49:49.645Z,5.32
2022-10-12T15:52:54.206Z,5.53
2022-10-12T15:55:57.272Z,6.28
2022-10-12T15:59:00.170Z,6.55
2022-10-12T16:02:03.013Z,5.72
2022-10-12T16:05:15.973Z,6.05
2022-10-12T16:08:18.751Z,5.93
2022-10-12T16:11:21.963Z,6.82
2022-10-12T16:14:24.768Z,6.47
2022-10-12T16:17:27.524Z,7.10
2022-10-12T16:20:34.289Z,6.57
2022-10-12T16:23:38.391Z,6.50
2022-10-12T16:26:44.856Z,7.07
2022-10-12T16:29:47.996Z,6.78
2022-10-12T16:32:50.919Z,6.93
2022-10-12T16:35:55.398Z,6.55
2022-10-12T16:38:58.277Z,6.38
2022-10-12T16:42:01.107Z,6.25
2022-10-12T16:45:04.805Z,6.45
2022-10-12T16:48:07.788Z,6.88
2022-10-12T16:51:13.859Z,7.18
2022-10-12T16:54:16.838Z,6.97
2022-10-12T16:57:19.674Z,7.55
2022-10-12T17:00:22.623Z,7.00
2022-10-12T17:03:25.484Z,7.03
2022-10-12T17:06:29.925Z,6.38
2022-10-12T17:09:32.981Z,7.85
2022-10-12T17:12:36.076Z,7.38
2022-10-12T17:15:41.520Z,7.03
2022-10-12T17:18:44.363Z,7.13
2022-10-12T17:21:49.276Z,6.80
2022-10-12T17:24:52.043Z,7.05
2022-10-12T17:27:54.838Z,6.93
2022-10-12T17:30:57.564Z,8.05
2022-10-12T17:34:02.736Z,7.15
2022-10-12T17:37:08.418Z,6.65
2022-10-12T17:40:11.729Z,6.95
2022-10-12T17:43:14.576Z,8.18
2022-10-12T17:46:22.578Z,8.27
2022-10-12T17:49:25.813Z,7.70
2022-10-12T17:52:29.937Z,8.85
2022-10-12T17:55:48.113Z,8.50
2022-10-12T17:58:55.362Z,8.43
2022-10-12T18:01:58.196Z,8.52
2022-10-12T18:05:00.997Z,8.75
2022-10-12T18:08:05.686Z,9.55
2022-10-12T18:11:08.943Z,9.52
2022-10-12T18:14:13.099Z,10.13
2022-10-12T18:17:15.891Z,9.27
2022-10-12T18:20:19.433Z,9.48
2022-10-12T18:23:23.580Z,10.60
2022-10-12T18:26:27.850Z,11.60
2022-10-12T18:29:30.645Z,10.45
2022-10-12T18:32:33.482Z,11.43
2022-10-12T18:35:36.253Z,12.05
2022-10-12T18:38:40.690Z,10.40
2022-10-12T18:41:43.591Z,10.82
2022-10-12T18:44:46.511Z,11.23
2022-10-12T18:47:49.419Z,11.80
2022-10-12T18:50:53.337Z,11.50
2022-10-12T18:53:58.696Z,11.15
2022-10-12T18:57:02.486Z,9.85
2022-10-12T19:00:06.213Z,13.10
2022-10-12T19:03:12.486Z,12.00
2022-10-12T19:06:17.551Z,12.80
2022-10-12T19:09:21.875Z,12.15
2022-10-12T19:12:24.688Z,11.98
2022-10-12T19:15:28.533Z,13.95
2022-10-12T19:18:31.383Z,12.52
2022-10-12T19:21:34.828Z,13.25
2022-10-12T19:24:39.014Z,13.52
2022-10-12T19:27:41.992Z,12.98
2022-10-12T19:30:44.859Z,12.65
2022-10-12T19:33:48.464Z,12.30
2022-10-12T19:36:51.706Z,12.07
2022-10-12T19:39:55.919Z,11.98
2022-10-12T19:42:58.749Z,11.60
2022-10-12T19:46:03.702Z,13.15
2022-10-12T19:49:06.636Z,12.23
2022-10-12T19:52:09.452Z,13.00
2022-10-12T19:55:13.600Z,12.90
2022-10-12T19:58:16.436Z,12.65
2022-10-12T20:01:20.997Z,13.57
2022-10-12T20:04:24.166Z,11.77
2022-10-12T20:07:26.983Z,13.50
2022-10-12T20:10:31.191Z,12.70
2022-10-12T20:13:34.681Z,12.52
2022-10-12T20:16:37.826Z,13.40
2022-10-12T20:19:40.663Z,11.85
2022-10-12T20:22:43.421Z,12.68
2022-10-12T20:25:50.023Z,11.95
2022-10-12T20:28:54.720Z,10.73
2022-10-12T20:31:57.532Z,13.63
2022-10-12T20:35:01.637Z,13.40
2022-10-12T20:38:05.235Z,13.07
2022-10-12T20:41:11.289Z,13.20
2022-10-12T20:44:14.162Z,13.20
2022-10-12T20:47:17.648Z,14.82
2022-10-12T20:50:20.778Z,12.85
2022-10-12T20:53:23.627Z,14.32
2022-10-12T20:56:28.141Z,13.07
2022-10-12T20:59:31.508Z,13.85
2022-10-12T21:02:34.461Z,12.18
2022-10-12T21:05:37.265Z,12.95
2022-10-12T21:08:40.928Z,13.18
2022-10-12T21:11:45.137Z,12.27
2022-10-12T21:14:47.908Z,13.52
2022-10-12T21:17:51.087Z,12.80
2022-10-12T21:20:55.732Z,14.68
2022-10-12T21:24:01.155Z,11.82
2022-10-12T21:27:05.748Z,13.73
2022-10-12T21:30:09.551Z,13.88
2022-10-12T21:33:13.189Z,13.23
2022-10-12T21:36:18.393Z,12.63
2022-10-12T21:39:21.175Z,14.55
2022-10-12T21:42:25.358Z,13.35
2022-10-12T21:45:28.309Z,11.77
2022-10-12T21:48:31.195Z,11.25
2022-10-12T21:51:33.975Z,11.02
2022-10-12T21:54:36.778Z,10.98
2022-10-12T21:57:40.916Z,10.48
2022-10-12T22:00:43.729Z,10.70
2022-10-12T22:03:48.053Z,10.10
2022-10-12T22:06:50.886Z,10.13
2022-10-12T22:09:53.652Z,10.10
2022-10-12T22:12:57.829Z,9.52
2022-10-12T22:16:01.620Z,10.07
2022-10-12T22:19:07.572Z,10.50
2022-10-12T22:22:10.390Z,10.20
2022-10-12T22:25:13.196Z,10.30
2022-10-12T22:28:17.481Z,10.32
2022-10-12T22:31:21.743Z,9.65
2022-10-12T22:34:24.552Z,9.85
2022-10-12T22:37:27.349Z,9.60
2022-10-12T22:40:30.171Z,9.73
2022-10-12T22:43:35.830Z,9.80
2022-10-12T22:46:38.602Z,9.27
2022-10-12T22:49:41.396Z,9.32
2022-10-12T22:52:44.161Z,9.55
2022-10-12T22:55:48.210Z,9.48
2022-10-12T22:58:56.458Z,9.00
2022-10-12T23:01:59.283Z,9.38
2022-10-12T23:05:03.389Z,9.45
2022-10-12T23:08:06.330Z,9.10
2022-10-12T23:11:11.868Z,8.43
2022-10-12T23:14:16.027Z,8.38
2022-10-12T23:17:18.842Z,8.75
2022-10-12T23:20:21.662Z,8.07
2022-10-12T23:23:25.888Z,9.07
2022-10-12T23:26:30.358Z,9.18
2022-10-12T23:29:34.566Z,8.65
2022-10-12T23:32:37.755Z,8.85
2022-10-12T23:35:40.536Z,8.50
2022-10-12T23:38:45.147Z,8.20
2022-10-12T23:41:47.931Z,8.77
2022-10-12T23:44:52.073Z,8.73
2022-10-12T23:47:54.850Z,8.27
2022-10-12T23:50:57.811Z,8.90
2022-10-12T23:54:00.921Z,8.13
2022-10-12T23:57:03.718Z,8.77
